sensor_id;sensor_type;location;lat;lon;timestamp;pressure;altitude;pressure_sealevel;temperature;humidity
25130;BME280;13308;50.860;13.664;2022-07-29T04:30:06;96820.56;;;15.43;86.16
25130;BME280;13308;50.860;13.664;2022-07-29T04:32:32;96819.56;;;15.49;85.43
25130;BME280;13308;50.860;13.664;2022-07-29T04:34:57;96826.69;;;15.50;85.94
25130;BME280;13308;50.860;13.664;2022-07-29T04:37:22;96817.88;;;15.52;86.37
25130;BME280;13308;50.860;13.664;2022-07-29T04:39:48;96825.53;;;15.60;86.51
25130;BME280;13308;50.860;13.664;2022-07-29T04:42:13;96834.59;;;15.73;85.32
25130;BME280;13308;50.860;13.664;2022-07-29T04:44:39;96827.94;;;15.92;84.24
25130;BME280;13308;50.860;13.664;2022-07-29T04:47:07;96836.41;;;15.89;83.71
25130;BME280;13308;50.860;13.664;2022-07-29T04:49:33;96833.56;;;16.01;83.63
25130;BME280;13308;50.860;13.664;2022-07-29T04:51:58;96837.94;;;16.11;82.86
25130;BME280;13308;50.860;13.664;2022-07-29T04:54:23;96826.81;;;16.11;83.10
25130;BME280;13308;50.860;13.664;2022-07-29T04:56:48;96830.25;;;16.15;82.67
25130;BME280;13308;50.860;13.664;2022-07-29T04:59:14;96829.66;;;16.20;83.51
25130;BME280;13308;50.860;13.664;2022-07-29T05:01:39;96834.56;;;16.38;82.21
25130;BME280;13308;50.860;13.664;2022-07-29T05:04:04;96832.97;;;16.49;81.49
25130;BME280;13308;50.860;13.664;2022-07-29T05:07:02;96833.00;;;16.58;81.53
25130;BME280;13308;50.860;13.664;2022-07-29T05:09:28;96831.22;;;16.43;83.72
25130;BME280;13308;50.860;13.664;2022-07-29T05:11:53;96835.75;;;16.49;83.76
25130;BME280;13308;50.860;13.664;2022-07-29T05:14:18;96831.72;;;16.50;82.67
25130;BME280;13308;50.860;13.664;2022-07-29T05:16:43;96844.81;;;16.71;82.47
25130;BME280;13308;50.860;13.664;2022-07-29T05:19:09;96847.06;;;16.94;82.62
25130;BME280;13308;50.860;13.664;2022-07-29T05:21:34;96836.00;;;17.30;80.40
25130;BME280;13308;50.860;13.664;2022-07-29T05:24:00;96843.84;;;17.62;78.58
25130;BME280;13308;50.860;13.664;2022-07-29T05:26:26;96845.88;;;17.89;76.59
25130;BME280;13308;50.860;13.664;2022-07-29T05:28:51;96844.16;;;18.09;76.76
25130;BME280;13308;50.860;13.664;2022-07-29T05:31:16;96848.63;;;18.34;76.02
25130;BME280;13308;50.860;13.664;2022-07-29T05:33:42;96835.06;;;18.50;74.37
25130;BME280;13308;50.860;13.664;2022-07-29T05:36:07;96837.19;;;18.73;74.30
25130;BME280;13308;50.860;13.664;2022-07-29T05:38:33;96843.31;;;18.95;72.22
25130;BME280;13308;50.860;13.664;2022-07-29T05:40:59;96833.94;;;18.75;74.09
25130;BME280;13308;50.860;13.664;2022-07-29T05:43:26;96841.13;;;18.99;73.47
25130;BME280;13308;50.860;13.664;2022-07-29T05:45:51;96844.00;;;19.13;74.08
25130;BME280;13308;50.860;13.664;2022-07-29T05:48:16;96846.59;;;19.26;74.99
25130;BME280;13308;50.860;13.664;2022-07-29T05:50:42;96856.97;;;19.34;76.54
25130;BME280;13308;50.860;13.664;2022-07-29T05:53:13;96851.63;;;19.45;76.80
25130;BME280;13308;50.860;13.664;2022-07-29T05:55:38;96848.81;;;19.45;76.57
25130;BME280;13308;50.860;13.664;2022-07-29T05:58:03;96840.72;;;19.47;75.22
25130;BME280;13308;50.860;13.664;2022-07-29T06:00:29;96850.50;;;19.52;73.88
25130;BME280;13308;50.860;13.664;2022-07-29T06:02:55;96846.56;;;19.58;75.63
25130;BME280;13308;50.860;13.664;2022-07-29T06:05:20;96846.03;;;19.45;76.20
25130;BME280;13308;50.860;13.664;2022-07-29T06:07:45;96848.63;;;19.49;72.83
25130;BME280;13308;50.860;13.664;2022-07-29T06:10:11;96843.66;;;19.53;73.85
25130;BME280;13308;50.860;13.664;2022-07-29T06:12:36;96848.59;;;19.58;72.97
25130;BME280;13308;50.860;13.664;2022-07-29T06:15:02;96849.47;;;19.64;73.18
25130;BME280;13308;50.860;13.664;2022-07-29T06:17:27;96855.75;;;19.97;71.52
25130;BME280;13308;50.860;13.664;2022-07-29T06:19:52;96855.22;;;20.07;71.97
25130;BME280;13308;50.860;13.664;2022-07-29T06:22:18;96860.84;;;20.22;73.02
25130;BME280;13308;50.860;13.664;2022-07-29T06:24:43;96859.13;;;20.39;67.81
25130;BME280;13308;50.860;13.664;2022-07-29T06:27:11;96860.59;;;20.49;68.59
25130;BME280;13308;50.860;13.664;2022-07-29T06:29:37;96865.13;;;20.61;70.26
25130;BME280;13308;50.860;13.664;2022-07-29T06:32:02;96863.41;;;20.78;70.89
25130;BME280;13308;50.860;13.664;2022-07-29T06:34:28;96865.31;;;20.86;71.21
25130;BME280;13308;50.860;13.664;2022-07-29T06:36:53;96864.34;;;21.04;71.43
25130;BME280;13308;50.860;13.664;2022-07-29T06:39:18;96868.19;;;21.21;71.62
25130;BME280;13308;50.860;13.664;2022-07-29T06:41:47;96869.22;;;21.38;70.82
25130;BME280;13308;50.860;13.664;2022-07-29T06:44:14;96869.66;;;21.51;71.54
25130;BME280;13308;50.860;13.664;2022-07-29T06:46:39;96873.50;;;21.68;71.28
25130;BME280;13308;50.860;13.664;2022-07-29T06:49:04;96873.06;;;21.75;70.49
25130;BME280;13308;50.860;13.664;2022-07-29T06:51:30;96873.78;;;21.90;70.56
25130;BME280;13308;50.860;13.664;2022-07-29T06:53:56;96873.91;;;22.01;69.17
25130;BME280;13308;50.860;13.664;2022-07-29T06:56:22;96869.75;;;22.16;68.48
25130;BME280;13308;50.860;13.664;2022-07-29T06:58:47;96872.19;;;22.29;66.69
25130;BME280;13308;50.860;13.664;2022-07-29T07:01:13;96877.53;;;22.27;65.23
25130;BME280;13308;50.860;13.664;2022-07-29T07:03:38;96881.66;;;22.51;64.71
25130;BME280;13308;50.860;13.664;2022-07-29T07:06:03;96885.91;;;22.67;65.35
25130;BME280;13308;50.860;13.664;2022-07-29T07:08:29;96873.78;;;22.81;64.28
25130;BME280;13308;50.860;13.664;2022-07-29T07:10:54;96885.22;;;23.03;62.56
25130;BME280;13308;50.860;13.664;2022-07-29T07:13:20;96885.75;;;23.32;62.06
25130;BME280;13308;50.860;13.664;2022-07-29T07:15:46;96883.03;;;23.49;62.87
25130;BME280;13308;50.860;13.664;2022-07-29T07:18:14;96887.19;;;23.59;62.29
25130;BME280;13308;50.860;13.664;2022-07-29T07:20:39;96884.94;;;23.68;61.17
25130;BME280;13308;50.860;13.664;2022-07-29T07:23:05;96884.22;;;23.79;59.15
25130;BME280;13308;50.860;13.664;2022-07-29T07:25:30;96891.50;;;23.91;58.87
25130;BME280;13308;50.860;13.664;2022-07-29T07:27:56;96895.69;;;24.12;58.23
25130;BME280;13308;50.860;13.664;2022-07-29T07:30:21;96894.69;;;24.15;58.87
25130;BME280;13308;50.860;13.664;2022-07-29T07:32:46;96885.56;;;24.42;58.60
25130;BME280;13308;50.860;13.664;2022-07-29T07:35:12;96888.66;;;24.55;58.88
25130;BME280;13308;50.860;13.664;2022-07-29T07:37:38;96888.75;;;24.77;56.57
25130;BME280;13308;50.860;13.664;2022-07-29T07:40:06;96885.16;;;24.87;56.14
25130;BME280;13308;50.860;13.664;2022-07-29T07:42:31;96885.41;;;25.00;55.66
25130;BME280;13308;50.860;13.664;2022-07-29T07:44:56;96887.50;;;25.00;54.53
25130;BME280;13308;50.860;13.664;2022-07-29T07:47:22;96868.47;;;25.11;54.97
25130;BME280;13308;50.860;13.664;2022-07-29T07:49:52;96873.91;;;25.26;54.35
25130;BME280;13308;50.860;13.664;2022-07-29T07:52:20;96875.66;;;24.96;52.92
25130;BME280;13308;50.860;13.664;2022-07-29T07:54:45;96872.84;;;24.96;51.47
25130;BME280;13308;50.860;13.664;2022-07-29T07:57:11;96881.06;;;24.94;51.65
25130;BME280;13308;50.860;13.664;2022-07-29T07:59:37;96885.19;;;25.59;51.84
25130;BME280;13308;50.860;13.664;2022-07-29T08:02:03;96883.94;;;26.28;51.52
25130;BME280;13308;50.860;13.664;2022-07-29T08:04:28;96882.69;;;26.75;50.14
25130;BME280;13308;50.860;13.664;2022-07-29T08:06:54;96886.66;;;27.31;49.26
25130;BME280;13308;50.860;13.664;2022-07-29T08:09:20;96887.00;;;27.81;48.52
25130;BME280;13308;50.860;13.664;2022-07-29T08:11:46;96879.50;;;27.54;46.10
25130;BME280;13308;50.860;13.664;2022-07-29T08:14:11;96874.44;;;27.95;46.40
25130;BME280;13308;50.860;13.664;2022-07-29T08:16:36;96875.38;;;28.03;44.70
25130;BME280;13308;50.860;13.664;2022-07-29T08:19:02;96876.63;;;27.30;44.01
25130;BME280;13308;50.860;13.664;2022-07-29T08:21:27;96876.06;;;27.61;45.96
25130;BME280;13308;50.860;13.664;2022-07-29T08:23:52;96873.59;;;27.76;45.42
25130;BME280;13308;50.860;13.664;2022-07-29T08:26:19;96876.72;;;27.48;44.97
25130;BME280;13308;50.860;13.664;2022-07-29T08:28:45;96877.44;;;27.25;44.59
25130;BME280;13308;50.860;13.664;2022-07-29T08:31:13;96876.41;;;26.41;43.82
25130;BME280;13308;50.860;13.664;2022-07-29T08:33:39;96872.28;;;26.42;45.30
25130;BME280;13308;50.860;13.664;2022-07-29T08:36:05;96868.06;;;26.14;44.59
25130;BME280;13308;50.860;13.664;2022-07-29T08:38:31;96865.81;;;25.79;46.01
25130;BME280;13308;50.860;13.664;2022-07-29T08:40:56;96866.28;;;26.11;44.50
25130;BME280;13308;50.860;13.664;2022-07-29T08:43:23;96874.31;;;25.96;45.43
25130;BME280;13308;50.860;13.664;2022-07-29T08:45:50;96875.50;;;26.17;46.32
25130;BME280;13308;50.860;13.664;2022-07-29T08:48:20;96867.34;;;26.54;44.95
25130;BME280;13308;50.860;13.664;2022-07-29T08:50:48;96882.53;;;26.56;43.46
25130;BME280;13308;50.860;13.664;2022-07-29T08:53:16;96870.22;;;26.89;44.15
25130;BME280;13308;50.860;13.664;2022-07-29T08:55:48;96881.97;;;27.04;42.95
25130;BME280;13308;50.860;13.664;2022-07-29T08:58:15;96881.97;;;27.04;42.30
25130;BME280;13308;50.860;13.664;2022-07-29T09:00:43;96872.81;;;26.87;43.02
25130;BME280;13308;50.860;13.664;2022-07-29T09:03:09;96878.19;;;26.50;43.92
25130;BME280;13308;50.860;13.664;2022-07-29T09:05:41;96873.38;;;26.80;45.35
25130;BME280;13308;50.860;13.664;2022-07-29T09:08:07;96867.59;;;26.61;43.79
25130;BME280;13308;50.860;13.664;2022-07-29T09:10:35;96878.78;;;27.13;41.91
25130;BME280;13308;50.860;13.664;2022-07-29T09:13:00;96872.59;;;27.20;42.16
25130;BME280;13308;50.860;13.664;2022-07-29T09:15:25;96879.31;;;27.17;42.37
25130;BME280;13308;50.860;13.664;2022-07-29T09:17:51;96874.44;;;27.12;42.60
25130;BME280;13308;50.860;13.664;2022-07-29T09:20:20;96870.75;;;27.22;41.51
25130;BME280;13308;50.860;13.664;2022-07-29T09:22:47;96873.31;;;26.91;42.41
25130;BME280;13308;50.860;13.664;2022-07-29T09:25:15;96885.81;;;27.06;41.02
25130;BME280;13308;50.860;13.664;2022-07-29T09:28:08;96881.47;;;27.00;41.25
25130;BME280;13308;50.860;13.664;2022-07-29T09:30:34;96879.53;;;26.84;41.78
25130;BME280;13308;50.860;13.664;2022-07-29T09:33:03;96875.44;;;26.79;43.17
25130;BME280;13308;50.860;13.664;2022-07-29T09:35:29;96884.16;;;27.22;41.74
25130;BME280;13308;50.860;13.664;2022-07-29T09:37:55;96878.41;;;26.98;41.01
25130;BME280;13308;50.860;13.664;2022-07-29T09:40:26;96880.44;;;27.03;41.59
25130;BME280;13308;50.860;13.664;2022-07-29T09:42:52;96875.59;;;27.33;40.64
25130;BME280;13308;50.860;13.664;2022-07-29T09:45:28;96870.16;;;27.35;42.60
25130;BME280;13308;50.860;13.664;2022-07-29T09:47:54;96866.41;;;27.51;42.07
25130;BME280;13308;50.860;13.664;2022-07-29T09:50:20;96864.63;;;27.72;41.06
25130;BME280;13308;50.860;13.664;2022-07-29T09:52:52;96869.56;;;27.42;41.30
25130;BME280;13308;50.860;13.664;2022-07-29T09:55:19;96876.13;;;27.55;40.40
25130;BME280;13308;50.860;13.664;2022-07-29T09:57:45;96875.84;;;27.59;40.37
25130;BME280;13308;50.860;13.664;2022-07-29T10:00:13;96875.03;;;27.64;40.08
25130;BME280;13308;50.860;13.664;2022-07-29T10:02:41;96875.25;;;28.14;40.67
25130;BME280;13308;50.860;13.664;2022-07-29T10:05:22;96866.44;;;28.60;40.80
25130;BME280;13308;50.860;13.664;2022-07-29T10:07:56;96876.41;;;29.03;37.59
25130;BME280;13308;50.860;13.664;2022-07-29T10:10:27;96870.97;;;29.50;39.12
25130;BME280;13308;50.860;13.664;2022-07-29T10:13:01;96878.09;;;30.14;38.75
25130;BME280;13308;50.860;13.664;2022-07-29T10:15:32;96860.44;;;30.41;37.00
25130;BME280;13308;50.860;13.664;2022-07-29T10:17:58;96863.22;;;30.80;36.61
25130;BME280;13308;50.860;13.664;2022-07-29T10:20:26;96871.53;;;31.12;35.53
25130;BME280;13308;50.860;13.664;2022-07-29T10:22:53;96867.53;;;30.61;35.34
25130;BME280;13308;50.860;13.664;2022-07-29T10:25:19;96868.47;;;30.30;36.97
25130;BME280;13308;50.860;13.664;2022-07-29T10:27:46;96860.53;;;29.97;36.66
25130;BME280;13308;50.860;13.664;2022-07-29T10:30:13;96865.56;;;30.56;37.74
25130;BME280;13308;50.860;13.664;2022-07-29T10:32:44;96878.75;;;31.26;36.39
25130;BME280;13308;50.860;13.664;2022-07-29T10:38:55;96865.75;;;31.79;35.40
25130;BME280;13308;50.860;13.664;2022-07-29T10:44:29;96849.72;;;30.81;36.03
25130;BME280;13308;50.860;13.664;2022-07-29T10:46:55;96857.00;;;31.02;37.56
25130;BME280;13308;50.860;13.664;2022-07-29T10:49:27;96856.06;;;31.41;35.10
25130;BME280;13308;50.860;13.664;2022-07-29T10:52:04;96846.97;;;29.64;37.39
25130;BME280;13308;50.860;13.664;2022-07-29T10:57:14;96836.16;;;29.88;36.97
25130;BME280;13308;50.860;13.664;2022-07-29T10:59:40;96843.91;;;29.75;37.70
25130;BME280;13308;50.860;13.664;2022-07-29T11:07:31;96844.34;;;29.92;37.20
25130;BME280;13308;50.860;13.664;2022-07-29T11:15:02;96832.44;;;29.23;38.60
25130;BME280;13308;50.860;13.664;2022-07-29T11:17:28;96830.94;;;29.03;39.52
25130;BME280;13308;50.860;13.664;2022-07-29T11:22:57;96829.72;;;28.99;39.04
25130;BME280;13308;50.860;13.664;2022-07-29T11:25:22;96836.00;;;28.92;39.06
25130;BME280;13308;50.860;13.664;2022-07-29T11:27:48;96837.88;;;28.89;39.05
25130;BME280;13308;50.860;13.664;2022-07-29T11:30:14;96845.81;;;29.09;40.17
25130;BME280;13308;50.860;13.664;2022-07-29T11:32:43;96837.38;;;29.35;39.12
25130;BME280;13308;50.860;13.664;2022-07-29T11:35:22;96834.38;;;29.28;39.86
25130;BME280;13308;50.860;13.664;2022-07-29T11:43:55;96835.34;;;29.17;39.50
25130;BME280;13308;50.860;13.664;2022-07-29T11:46:45;96830.00;;;29.58;39.51
25130;BME280;13308;50.860;13.664;2022-07-29T11:49:24;96840.75;;;30.30;38.18
25130;BME280;13308;50.860;13.664;2022-07-29T11:51:57;96843.81;;;30.19;37.92
25130;BME280;13308;50.860;13.664;2022-07-29T11:54:31;96848.94;;;30.34;38.43
25130;BME280;13308;50.860;13.664;2022-07-29T11:56:58;96836.91;;;30.28;37.34
25130;BME280;13308;50.860;13.664;2022-07-29T11:59:24;96838.44;;;29.64;39.19
25130;BME280;13308;50.860;13.664;2022-07-29T12:01:56;96844.34;;;29.79;38.54
25130;BME280;13308;50.860;13.664;2022-07-29T12:04:22;96844.13;;;29.90;37.52
25130;BME280;13308;50.860;13.664;2022-07-29T12:06:52;96843.84;;;29.49;38.65
25130;BME280;13308;50.860;13.664;2022-07-29T12:09:18;96831.53;;;29.28;39.10
25130;BME280;13308;50.860;13.664;2022-07-29T12:11:45;96832.25;;;29.47;39.51
25130;BME280;13308;50.860;13.664;2022-07-29T12:14:31;96828.38;;;29.76;37.92
25130;BME280;13308;50.860;13.664;2022-07-29T12:16:58;96837.16;;;30.63;37.81
25130;BME280;13308;50.860;13.664;2022-07-29T12:19:23;96838.81;;;30.59;36.93
25130;BME280;13308;50.860;13.664;2022-07-29T12:21:54;96842.44;;;30.59;37.29
25130;BME280;13308;50.860;13.664;2022-07-29T12:24:20;96847.13;;;31.03;36.03
25130;BME280;13308;50.860;13.664;2022-07-29T12:27:12;96827.03;;;31.09;36.59
25130;BME280;13308;50.860;13.664;2022-07-29T12:29:42;96829.81;;;32.11;34.82
25130;BME280;13308;50.860;13.664;2022-07-29T12:32:07;96828.25;;;32.38;35.88
25130;BME280;13308;50.860;13.664;2022-07-29T12:34:33;96832.31;;;31.87;35.43
25130;BME280;13308;50.860;13.664;2022-07-29T12:37:00;96818.19;;;30.79;36.35
25130;BME280;13308;50.860;13.664;2022-07-29T12:39:26;96817.03;;;30.95;35.44
25130;BME280;13308;50.860;13.664;2022-07-29T12:41:53;96812.00;;;32.26;34.82
25130;BME280;13308;50.860;13.664;2022-07-29T12:44:19;96813.38;;;32.83;34.22
25130;BME280;13308;50.860;13.664;2022-07-29T12:46:44;96826.63;;;33.91;33.83
25130;BME280;13308;50.860;13.664;2022-07-29T12:49:21;96819.09;;;34.33;32.98
25130;BME280;13308;50.860;13.664;2022-07-29T12:51:46;96816.06;;;34.16;31.39
25130;BME280;13308;50.860;13.664;2022-07-29T12:54:15;96816.09;;;33.03;33.13
25130;BME280;13308;50.860;13.664;2022-07-29T12:56:42;96801.44;;;32.56;34.13
25130;BME280;13308;50.860;13.664;2022-07-29T12:59:26;96807.81;;;32.27;33.93
25130;BME280;13308;50.860;13.664;2022-07-29T13:01:52;96813.44;;;32.55;33.83
25130;BME280;13308;50.860;13.664;2022-07-29T13:04:31;96807.72;;;32.55;34.11
25130;BME280;13308;50.860;13.664;2022-07-29T13:07:01;96811.16;;;33.04;33.06
25130;BME280;13308;50.860;13.664;2022-07-29T13:09:41;96804.53;;;32.66;32.87
25130;BME280;13308;50.860;13.664;2022-07-29T13:12:08;96798.34;;;32.39;33.76
25130;BME280;13308;50.860;13.664;2022-07-29T13:14:40;96804.78;;;32.32;34.27
25130;BME280;13308;50.860;13.664;2022-07-29T13:17:19;96793.38;;;30.87;35.98
25130;BME280;13308;50.860;13.664;2022-07-29T13:20:04;96803.00;;;30.97;36.21
25130;BME280;13308;50.860;13.664;2022-07-29T13:22:29;96795.13;;;29.58;37.33
25130;BME280;13308;50.860;13.664;2022-07-29T13:24:56;96790.31;;;29.66;37.17
25130;BME280;13308;50.860;13.664;2022-07-29T13:27:24;96788.56;;;29.76;37.35
25130;BME280;13308;50.860;13.664;2022-07-29T13:29:50;96788.78;;;29.65;37.58
25130;BME280;13308;50.860;13.664;2022-07-29T13:32:20;96791.63;;;29.78;38.20
25130;BME280;13308;50.860;13.664;2022-07-29T13:34:45;96790.09;;;29.77;37.53
25130;BME280;13308;50.860;13.664;2022-07-29T13:37:11;96795.78;;;29.90;37.20
25130;BME280;13308;50.860;13.664;2022-07-29T13:39:36;96785.56;;;30.33;37.06
25130;BME280;13308;50.860;13.664;2022-07-29T13:42:03;96797.81;;;30.75;36.64
25130;BME280;13308;50.860;13.664;2022-07-29T13:44:28;96795.69;;;31.50;35.73
25130;BME280;13308;50.860;13.664;2022-07-29T13:46:54;96799.31;;;32.06;34.59
25130;BME280;13308;50.860;13.664;2022-07-29T13:49:19;96787.72;;;31.76;34.83
25130;BME280;13308;50.860;13.664;2022-07-29T13:51:44;96787.72;;;31.76;36.11
25130;BME280;13308;50.860;13.664;2022-07-29T13:54:10;96780.97;;;32.30;35.11
25130;BME280;13308;50.860;13.664;2022-07-29T13:56:35;96777.78;;;32.41;35.42
25130;BME280;13308;50.860;13.664;2022-07-29T13:59:01;96787.97;;;32.72;35.01
25130;BME280;13308;50.860;13.664;2022-07-29T14:01:27;96786.00;;;33.10;34.74
25130;BME280;13308;50.860;13.664;2022-07-29T14:03:52;96797.06;;;33.66;32.42
25130;BME280;13308;50.860;13.664;2022-07-29T14:06:18;96790.59;;;33.43;33.40
25130;BME280;13308;50.860;13.664;2022-07-29T14:08:44;96793.63;;;33.90;31.90
25130;BME280;13308;50.860;13.664;2022-07-29T14:11:09;96791.50;;;33.98;32.58
25130;BME280;13308;50.860;13.664;2022-07-29T14:13:34;96779.06;;;34.03;31.82
25130;BME280;13308;50.860;13.664;2022-07-29T14:16:00;96784.88;;;33.58;32.17
25130;BME280;13308;50.860;13.664;2022-07-29T14:18:25;96775.59;;;32.62;32.87
25130;BME280;13308;50.860;13.664;2022-07-29T14:20:51;96773.16;;;31.95;34.88
25130;BME280;13308;50.860;13.664;2022-07-29T14:23:17;96764.25;;;31.70;36.28
25130;BME280;13308;50.860;13.664;2022-07-29T14:25:42;96765.84;;;32.14;35.55
25130;BME280;13308;50.860;13.664;2022-07-29T14:28:07;96771.97;;;31.62;35.55
25130;BME280;13308;50.860;13.664;2022-07-29T14:30:32;96762.78;;;31.49;35.91
25130;BME280;13308;50.860;13.664;2022-07-29T14:32:58;96764.69;;;31.54;35.08
25130;BME280;13308;50.860;13.664;2022-07-29T14:35:23;96764.75;;;31.61;35.04
25130;BME280;13308;50.860;13.664;2022-07-29T14:37:48;96772.84;;;32.06;34.83
25130;BME280;13308;50.860;13.664;2022-07-29T14:40:14;96763.84;;;32.30;35.59
25130;BME280;13308;50.860;13.664;2022-07-29T14:42:39;96775.13;;;32.43;34.51
25130;BME280;13308;50.860;13.664;2022-07-29T14:45:06;96778.22;;;32.60;34.62
25130;BME280;13308;50.860;13.664;2022-07-29T14:47:32;96770.41;;;32.10;34.67
25130;BME280;13308;50.860;13.664;2022-07-29T14:49:57;96767.00;;;32.62;33.88
25130;BME280;13308;50.860;13.664;2022-07-29T14:52:22;96773.97;;;33.71;33.61
25130;BME280;13308;50.860;13.664;2022-07-29T14:54:48;96782.78;;;34.43;31.20
25130;BME280;13308;50.860;13.664;2022-07-29T14:57:13;96779.97;;;34.75;31.99
25130;BME280;13308;50.860;13.664;2022-07-29T14:59:38;96775.63;;;34.12;32.22
25130;BME280;13308;50.860;13.664;2022-07-29T15:02:04;96765.00;;;33.00;33.41
25130;BME280;13308;50.860;13.664;2022-07-29T15:04:29;96764.41;;;31.93;34.62
25130;BME280;13308;50.860;13.664;2022-07-29T15:06:55;96770.53;;;31.69;35.80
25130;BME280;13308;50.860;13.664;2022-07-29T15:09:20;96754.31;;;31.36;36.06
25130;BME280;13308;50.860;13.664;2022-07-29T15:11:45;96762.59;;;31.75;35.42
25130;BME280;13308;50.860;13.664;2022-07-29T15:14:11;96766.84;;;31.89;34.94
25130;BME280;13308;50.860;13.664;2022-07-29T15:16:37;96762.38;;;32.44;34.89
25130;BME280;13308;50.860;13.664;2022-07-29T15:19:03;96765.56;;;33.06;33.00
25130;BME280;13308;50.860;13.664;2022-07-29T15:21:28;96764.63;;;33.63;32.73
25130;BME280;13308;50.860;13.664;2022-07-29T15:23:54;96753.97;;;33.04;34.19
25130;BME280;13308;50.860;13.664;2022-07-29T15:26:19;96750.97;;;32.51;34.91
25130;BME280;13308;50.860;13.664;2022-07-29T15:28:45;96748.34;;;32.18;34.76
25130;BME280;13308;50.860;13.664;2022-07-29T15:31:10;96745.03;;;31.71;35.49
25130;BME280;13308;50.860;13.664;2022-07-29T15:33:35;96755.44;;;31.33;35.94
25130;BME280;13308;50.860;13.664;2022-07-29T15:36:01;96741.28;;;31.20;36.15
25130;BME280;13308;50.860;13.664;2022-07-29T15:38:26;96730.81;;;30.27;36.58
25130;BME280;13308;50.860;13.664;2022-07-29T15:40:51;96728.03;;;30.14;36.21
25130;BME280;13308;50.860;13.664;2022-07-29T15:43:17;96726.84;;;29.84;36.68
25130;BME280;13308;50.860;13.664;2022-07-29T15:45:42;96726.44;;;29.54;37.91
25130;BME280;13308;50.860;13.664;2022-07-29T15:48:30;96710.88;;;29.29;39.08
25130;BME280;13308;50.860;13.664;2022-07-29T15:50:56;96715.88;;;29.10;38.78
25130;BME280;13308;50.860;13.664;2022-07-29T15:53:22;96711.63;;;29.29;37.68
25130;BME280;13308;50.860;13.664;2022-07-29T15:55:47;96709.31;;;29.15;38.48
25130;BME280;13308;50.860;13.664;2022-07-29T15:58:13;96701.41;;;28.95;39.18
25130;BME280;13308;50.860;13.664;2022-07-29T16:00:38;96697.34;;;28.46;39.78
25130;BME280;13308;50.860;13.664;2022-07-29T16:03:03;96698.22;;;28.41;39.91
25130;BME280;13308;50.860;13.664;2022-07-29T16:05:29;96704.94;;;28.38;40.34
25130;BME280;13308;50.860;13.664;2022-07-29T16:07:55;96701.50;;;28.08;42.37
25130;BME280;13308;50.860;13.664;2022-07-29T16:10:20;96694.31;;;28.07;42.32
25130;BME280;13308;50.860;13.664;2022-07-29T16:12:45;96699.06;;;27.99;42.76
25130;BME280;13308;50.860;13.664;2022-07-29T16:15:11;96700.28;;;27.85;42.39
25130;BME280;13308;50.860;13.664;2022-07-29T16:17:37;96703.13;;;27.85;42.41
25130;BME280;13308;50.860;13.664;2022-07-29T16:20:03;96693.41;;;27.80;41.21
25130;BME280;13308;50.860;13.664;2022-07-29T16:22:29;96692.03;;;27.87;41.67
25130;BME280;13308;50.860;13.664;2022-07-29T16:24:54;96688.50;;;27.81;41.47
25130;BME280;13308;50.860;13.664;2022-07-29T16:27:20;96689.81;;;27.80;41.39
25130;BME280;13308;50.860;13.664;2022-07-29T16:29:49;96691.81;;;27.61;41.96
25130;BME280;13308;50.860;13.664;2022-07-29T16:32:14;96691.34;;;27.38;42.62
25130;BME280;13308;50.860;13.664;2022-07-29T16:34:39;96692.72;;;27.32;43.19
25130;BME280;13308;50.860;13.664;2022-07-29T16:37:05;96693.25;;;27.30;42.94
25130;BME280;13308;50.860;13.664;2022-07-29T16:39:30;96686.91;;;27.19;42.64
25130;BME280;13308;50.860;13.664;2022-07-29T16:41:56;96685.72;;;27.09;43.62
25130;BME280;13308;50.860;13.664;2022-07-29T16:44:21;96687.25;;;27.10;43.96
25130;BME280;13308;50.860;13.664;2022-07-29T16:46:46;96689.38;;;27.04;44.19
25130;BME280;13308;50.860;13.664;2022-07-29T16:49:12;96688.16;;;26.99;44.08
25130;BME280;13308;50.860;13.664;2022-07-29T16:51:37;96689.16;;;27.02;43.54
25130;BME280;13308;50.860;13.664;2022-07-29T16:54:02;96684.34;;;26.91;43.48
25130;BME280;13308;50.860;13.664;2022-07-29T16:56:28;96690.38;;;26.82;43.97
25130;BME280;13308;50.860;13.664;2022-07-29T16:58:56;96687.84;;;26.79;44.01
25130;BME280;13308;50.860;13.664;2022-07-29T17:01:21;96679.47;;;26.68;44.05
25130;BME280;13308;50.860;13.664;2022-07-29T17:03:47;96689.34;;;26.56;44.93
25130;BME280;13308;50.860;13.664;2022-07-29T17:06:31;96682.69;;;26.48;45.02
25130;BME280;13308;50.860;13.664;2022-07-29T17:08:59;96690.25;;;26.34;45.57
25130;BME280;13308;50.860;13.664;2022-07-29T17:11:25;96692.38;;;26.28;45.14
25130;BME280;13308;50.860;13.664;2022-07-29T17:13:50;96693.97;;;26.18;46.02
25130;BME280;13308;50.860;13.664;2022-07-29T17:16:15;96678.91;;;26.05;45.78
25130;BME280;13308;50.860;13.664;2022-07-29T17:18:41;96695.41;;;26.01;45.62
25130;BME280;13308;50.860;13.664;2022-07-29T17:21:06;96686.38;;;26.02;45.75
25130;BME280;13308;50.860;13.664;2022-07-29T17:23:31;96682.94;;;25.74;46.78
25130;BME280;13308;50.860;13.664;2022-07-29T17:25:57;96687.25;;;25.81;45.80
25130;BME280;13308;50.860;13.664;2022-07-29T17:28:22;96686.03;;;25.71;47.02
25130;BME280;13308;50.860;13.664;2022-07-29T17:30:47;96689.13;;;25.67;46.51
